Time;durP1;ratioP1;P1;durP2;ratioP2;P2;SDS_P1;SDS_P2;PMS_P1;PMS_P2;Temp;Humidity;BMP_temperature;BMP_pressure;BME280_temperature;BME280_humidity;BME280_pressure;Samples;Min_cycle;Max_cycle;Signal;HPM_P1;HPM_P2
2023/01/30 00:01:02;;;;;;;20.57;5.67;;;8.40;99.90;;;;;;4906493;29;20206;-80
2023/01/30 00:03:29;;;;;;;19.50;5.03;;;8.40;99.90;;;;;;4906372;29;20911;-79
2023/01/30 00:05:56;;;;;;;30.70;6.13;;;8.40;99.90;;;;;;4907459;29;20580;-81
2023/01/30 00:08:23;;;;;;;17.97;5.87;;;8.40;99.90;;;;;;4906606;29;20213;-81
2023/01/30 00:10:52;;;;;;;19.80;5.60;;;8.40;99.90;;;;;;4907093;29;20214;-80
2023/01/30 00:13:19;;;;;;;21.70;6.63;;;8.40;99.90;;;;;;4906410;29;20236;-80
2023/01/30 00:15:47;;;;;;;17.90;4.70;;;8.40;99.90;;;;;;4907055;29;20221;-81
2023/01/30 00:18:14;;;;;;;24.00;5.90;;;8.50;99.90;;;;;;4906209;29;20477;-80
2023/01/30 00:20:41;;;;;;;25.67;6.77;;;8.50;99.90;;;;;;4906448;29;20207;-80
2023/01/30 00:23:08;;;;;;;23.70;5.17;;;8.50;99.90;;;;;;4905316;29;20209;-80
2023/01/30 00:25:35;;;;;;;17.70;5.17;;;8.50;99.90;;;;;;4908699;29;20208;-80
2023/01/30 00:28:03;;;;;;;16.83;4.60;;;8.50;99.90;;;;;;4924558;29;20836;-79
2023/01/30 00:30:31;;;;;;;20.33;4.47;;;8.50;99.90;;;;;;4923728;29;20249;-79
2023/01/30 00:32:59;;;;;;;15.87;4.23;;;8.40;99.90;;;;;;4906832;29;20410;-80
2023/01/30 00:35:28;;;;;;;17.50;5.30;;;8.40;99.90;;;;;;4906057;29;20207;-80
2023/01/30 00:37:56;;;;;;;24.03;5.07;;;8.50;99.90;;;;;;4905872;29;20214;-80
2023/01/30 00:40:24;;;;;;;20.17;4.73;;;8.50;99.90;;;;;;4906534;29;20210;-80
2023/01/30 00:48:24;;;;;;;16.60;4.80;;;8.50;99.90;;;;;;4925129;29;20465;-82
2023/01/30 00:50:51;;;;;;;16.47;5.33;;;8.50;99.90;;;;;;4924658;29;20220;-80
2023/01/30 00:53:18;;;;;;;24.80;5.77;;;8.40;99.90;;;;;;4923319;29;20230;-78
2023/01/30 00:55:45;;;;;;;14.47;4.50;;;8.50;99.90;;;;;;4906203;29;20209;-79
2023/01/30 00:58:13;;;;;;;25.33;5.90;;;8.50;99.90;;;;;;4905894;29;20221;-80
2023/01/30 01:00:41;;;;;;;14.57;5.00;;;8.50;99.90;;;;;;4906247;29;20678;-79
2023/01/30 01:03:08;;;;;;;17.33;5.37;;;8.50;99.90;;;;;;4906518;29;20229;-79
2023/01/30 01:05:35;;;;;;;19.10;4.70;;;8.40;99.90;;;;;;4918996;29;20214;-79
2023/01/30 01:08:02;;;;;;;19.87;5.87;;;8.50;99.90;;;;;;4926179;29;20206;-81
2023/01/30 01:10:30;;;;;;;25.63;6.03;;;8.40;99.90;;;;;;4906436;29;20520;-81
2023/01/30 01:12:57;;;;;;;18.07;4.37;;;8.50;99.90;;;;;;4906713;29;20233;-81
2023/01/30 01:15:25;;;;;;;24.07;6.07;;;8.40;99.90;;;;;;4906077;29;20550;-81
2023/01/30 01:17:55;;;;;;;17.87;4.60;;;8.40;99.90;;;;;;4905820;29;20218;-81
2023/01/30 01:20:23;;;;;;;25.03;5.40;;;8.40;99.90;;;;;;4905577;29;20213;-81
2023/01/30 01:22:53;;;;;;;17.93;5.03;;;8.40;99.90;;;;;;4905282;29;20211;-81
2023/01/30 01:25:20;;;;;;;20.23;4.83;;;8.40;99.90;;;;;;4904922;29;20206;-81
2023/01/30 01:27:47;;;;;;;21.50;5.00;;;8.40;99.90;;;;;;4905621;29;20210;-82
2023/01/30 01:30:15;;;;;;;20.80;5.37;;;8.40;99.90;;;;;;4909803;29;20294;-82
2023/01/30 01:32:42;;;;;;;21.17;5.17;;;8.50;99.90;;;;;;4917098;29;20785;-80
2023/01/30 01:35:11;;;;;;;15.60;4.67;;;8.50;99.90;;;;;;4928819;29;20551;-81
2023/01/30 01:37:38;;;;;;;16.40;4.83;;;8.40;99.90;;;;;;4929896;29;20217;-81
2023/01/30 01:42:51;;;;;;;20.10;5.90;;;8.40;99.90;;;;;;4914074;29;20592;-81
2023/01/30 01:45:20;;;;;;;14.93;5.20;;;8.40;99.90;;;;;;4908387;29;20202;-81
2023/01/30 01:47:57;;;;;;;23.63;6.67;;;8.40;99.90;;;;;;4911902;29;20212;-80
2023/01/30 01:50:28;;;;;;;15.50;4.93;;;8.40;99.90;;;;;;4928878;29;20502;-80
2023/01/30 01:52:57;;;;;;;21.97;5.53;;;8.40;99.90;;;;;;4914427;29;20333;-80
2023/01/30 01:55:25;;;;;;;27.63;5.80;;;8.40;99.90;;;;;;4909386;29;20850;-81
2023/01/30 01:57:56;;;;;;;17.27;4.90;;;8.40;99.90;;;;;;4908081;29;20890;-81
2023/01/30 02:00:24;;;;;;;26.90;5.93;;;8.40;99.90;;;;;;4909267;29;20203;-80
2023/01/30 02:02:55;;;;;;;15.87;5.03;;;8.40;99.90;;;;;;4908475;29;20666;-79
2023/01/30 02:05:24;;;;;;;25.77;4.53;;;8.40;99.90;;;;;;4910209;29;20973;-80
2023/01/30 02:07:58;;;;;;;20.77;5.53;;;8.40;99.90;;;;;;4909468;29;20457;-79
2023/01/30 02:10:29;;;;;;;18.90;4.77;;;8.40;99.90;;;;;;4909363;29;20313;-81
2023/01/30 02:12:56;;;;;;;29.80;4.83;;;8.50;99.90;;;;;;4910128;29;20337;-81
2023/01/30 02:15:23;;;;;;;17.57;5.27;;;8.50;99.90;;;;;;4909400;29;20289;-81
2023/01/30 02:17:50;;;;;;;16.43;4.90;;;8.50;99.90;;;;;;4908555;29;20211;-81
2023/01/30 02:20:27;;;;;;;16.47;4.10;;;8.50;99.90;;;;;;4909437;29;20218;-81
2023/01/30 02:23:34;;;;;;;21.80;4.97;;;8.50;99.90;;;;;;4908549;29;20195;-80
2023/01/30 02:26:37;;;;;;;16.93;5.47;;;8.50;99.90;;;;;;4921467;29;20206;-80
2023/01/30 02:29:27;;;;;;;19.10;4.40;;;8.50;99.90;;;;;;4926981;29;20277;-80
2023/01/30 02:32:01;;;;;;;25.37;4.50;;;8.60;99.90;;;;;;4910433;29;20221;-81
2023/01/30 02:34:41;;;;;;;15.00;3.87;;;8.60;99.90;;;;;;4908369;29;20262;-80
2023/01/30 02:37:22;;;;;;;23.70;4.63;;;8.60;99.90;;;;;;4908543;29;20198;-80
2023/01/30 02:40:02;;;;;;;27.50;4.80;;;8.60;99.90;;;;;;4908527;29;20206;-80
2023/01/30 02:42:37;;;;;;;24.60;4.70;;;8.60;99.90;;;;;;4908098;29;20228;-81
2023/01/30 02:45:10;;;;;;;20.37;5.00;;;8.70;99.90;;;;;;4926061;29;20268;-80
2023/01/30 02:47:45;;;;;;;15.97;4.93;;;8.70;99.90;;;;;;4927707;29;20214;-81
2023/01/30 02:50:15;;;;;;;20.73;4.30;;;8.70;99.90;;;;;;4926721;29;20218;-83
2023/01/30 02:52:43;;;;;;;21.27;5.13;;;8.70;99.90;;;;;;4927303;29;20201;-82
2023/01/30 02:55:17;;;;;;;18.93;4.83;;;8.70;99.90;;;;;;4912841;29;20635;-82
2023/01/30 02:57:44;;;;;;;19.90;4.87;;;8.70;99.90;;;;;;4906000;29;20202;-81
2023/01/30 03:00:15;;;;;;;21.50;4.53;;;8.70;99.90;;;;;;4907368;29;20297;-79
2023/01/30 03:03:07;;;;;;;23.87;4.87;;;8.70;99.90;;;;;;4907799;29;20230;-79
2023/01/30 03:06:04;;;;;;;26.53;4.67;;;8.70;99.90;;;;;;4908520;29;20199;-81
2023/01/30 03:08:40;;;;;;;20.27;4.67;;;8.70;99.90;;;;;;4908261;29;20839;-80
2023/01/30 03:11:09;;;;;;;18.30;4.60;;;8.80;99.90;;;;;;4907732;29;20273;-81
2023/01/30 03:13:47;;;;;;;18.80;4.83;;;8.80;99.90;;;;;;4908127;29;20583;-80
2023/01/30 03:16:18;;;;;;;25.43;5.63;;;8.80;99.90;;;;;;4907918;29;20281;-82
2023/01/30 03:18:47;;;;;;;22.60;6.00;;;8.80;99.90;;;;;;4908102;29;20207;-81
2023/01/30 03:21:14;;;;;;;17.90;4.57;;;8.80;99.90;;;;;;4907806;29;20240;-80
2023/01/30 03:23:41;;;;;;;21.97;4.73;;;8.80;99.90;;;;;;4907535;29;20325;-80
2023/01/30 03:26:14;;;;;;;24.17;4.47;;;8.80;99.90;;;;;;4906797;29;20215;-79
2023/01/30 03:28:41;;;;;;;14.40;4.50;;;8.80;99.90;;;;;;4906635;29;20195;-80
2023/01/30 03:31:09;;;;;;;23.10;5.13;;;8.80;99.90;;;;;;4907109;29;20256;-80
2023/01/30 03:33:35;;;;;;;26.20;5.67;;;8.80;99.90;;;;;;4912156;29;20247;-80
2023/01/30 03:36:04;;;;;;;20.07;4.67;;;8.90;99.90;;;;;;4926154;29;20202;-80
2023/01/30 03:38:31;;;;;;;19.50;5.07;;;8.80;99.90;;;;;;4925930;29;20216;-80
2023/01/30 03:40:58;;;;;;;20.30;5.17;;;8.80;99.90;;;;;;4926460;29;20592;-81
2023/01/30 03:43:25;;;;;;;24.93;5.40;;;8.80;99.90;;;;;;4917460;29;20215;-80
2023/01/30 03:45:52;;;;;;;18.13;4.10;;;8.80;99.90;;;;;;4907204;29;20278;-82
2023/01/30 03:48:19;;;;;;;19.47;4.17;;;8.80;99.90;;;;;;4907165;29;20203;-80
2023/01/30 03:50:46;;;;;;;19.20;5.30;;;8.90;99.90;;;;;;4907615;29;20205;-81
2023/01/30 03:53:14;;;;;;;16.73;3.87;;;8.90;99.90;;;;;;4907199;29;20225;-80
2023/01/30 03:55:41;;;;;;;21.47;4.70;;;8.90;99.90;;;;;;4906936;29;20596;-81
2023/01/30 03:58:08;;;;;;;23.10;5.37;;;8.90;99.90;;;;;;4907084;29;20215;-80
2023/01/30 04:00:35;;;;;;;14.33;4.60;;;8.90;99.90;;;;;;4906913;29;20206;-80
2023/01/30 04:03:02;;;;;;;19.80;4.83;;;8.90;99.90;;;;;;4907860;29;20364;-81
2023/01/30 04:05:28;;;;;;;26.03;6.30;;;8.90;99.90;;;;;;4907213;29;20203;-80
2023/01/30 04:07:57;;;;;;;26.17;7.10;;;8.90;99.90;;;;;;4907525;29;20247;-80
2023/01/30 04:10:26;;;;;;;14.67;3.70;;;8.90;99.90;;;;;;4907531;29;20199;-82
2023/01/30 04:12:53;;;;;;;17.77;4.50;;;8.90;99.90;;;;;;4911920;29;20622;-80
2023/01/30 04:15:20;;;;;;;21.87;5.13;;;8.90;99.90;;;;;;4906530;29;20282;-81
2023/01/30 04:17:48;;;;;;;26.17;6.63;;;8.90;99.90;;;;;;4907216;29;20206;-81
2023/01/30 04:20:15;;;;;;;17.57;4.17;;;8.90;99.90;;;;;;4907725;29;20293;-80
2023/01/30 04:22:42;;;;;;;29.87;5.87;;;8.80;99.90;;;;;;4907260;29;20262;-80
2023/01/30 04:25:09;;;;;;;19.60;5.00;;;8.80;99.90;;;;;;4907437;29;20922;-82
2023/01/30 04:27:38;;;;;;;31.13;6.40;;;8.80;99.90;;;;;;4917823;29;20848;-80
2023/01/30 04:30:06;;;;;;;18.03;4.97;;;8.80;99.90;;;;;;4926123;29;20329;-82
2023/01/30 04:32:33;;;;;;;18.33;5.47;;;8.80;99.90;;;;;;4911756;29;20214;-80
2023/01/30 04:35:00;;;;;;;23.83;5.07;;;8.80;99.90;;;;;;4906314;29;20318;-81
2023/01/30 04:37:26;;;;;;;29.27;5.20;;;8.70;99.90;;;;;;4906338;29;20206;-80
2023/01/30 04:39:53;;;;;;;21.23;5.10;;;8.70;99.90;;;;;;4907374;29;20203;-81
2023/01/30 04:42:20;;;;;;;19.20;5.33;;;8.70;99.90;;;;;;4906204;29;20209;-80
2023/01/30 04:44:48;;;;;;;23.80;5.03;;;8.60;99.90;;;;;;4906444;29;20206;-80
2023/01/30 04:47:16;;;;;;;25.37;5.67;;;8.60;99.90;;;;;;4923016;29;20293;-80
2023/01/30 04:49:43;;;;;;;23.93;5.33;;;8.50;99.90;;;;;;4922277;29;20202;-80
2023/01/30 04:52:10;;;;;;;25.30;5.77;;;8.50;99.90;;;;;;4905382;29;20210;-80
2023/01/30 04:54:36;;;;;;;25.07;5.30;;;8.40;99.90;;;;;;4905727;29;20233;-81
2023/01/30 04:57:04;;;;;;;24.53;5.90;;;8.40;99.90;;;;;;4905489;29;20207;-80
2023/01/30 04:59:31;;;;;;;25.30;4.50;;;8.30;99.90;;;;;;4905608;29;20210;-80
2023/01/30 05:01:59;;;;;;;31.97;5.33;;;8.30;99.90;;;;;;4906021;29;20217;-81
2023/01/30 05:04:26;;;;;;;20.20;5.00;;;8.20;99.90;;;;;;4907688;29;20591;-80
2023/01/30 05:06:53;;;;;;;22.27;4.60;;;8.30;99.90;;;;;;4916677;29;20496;-81
2023/01/30 05:09:20;;;;;;;31.47;5.17;;;8.20;99.90;;;;;;4929296;29;20209;-80
2023/01/30 05:11:47;;;;;;;24.53;6.17;;;8.20;99.90;;;;;;4928324;29;20697;-80
2023/01/30 05:14:14;;;;;;;19.30;5.33;;;8.20;99.90;;;;;;4928629;29;20229;-81
2023/01/30 05:16:41;;;;;;;22.20;5.77;;;8.10;99.90;;;;;;4921308;29;20207;-81
2023/01/30 05:19:10;;;;;;;26.40;4.73;;;8.10;99.90;;;;;;4909470;29;20371;-81
2023/01/30 05:21:37;;;;;;;18.27;4.70;;;8.10;99.90;;;;;;4909888;29;20211;-80
2023/01/30 05:24:05;;;;;;;22.50;5.23;;;8.10;99.90;;;;;;4909769;29;20627;-81
2023/01/30 05:26:32;;;;;;;20.30;4.00;;;8.10;99.90;;;;;;4909918;29;20268;-81
2023/01/30 05:28:59;;;;;;;21.33;4.87;;;8.10;99.90;;;;;;4909194;29;20207;-80
2023/01/30 05:31:26;;;;;;;21.37;4.93;;;8.10;99.90;;;;;;4909026;29;20205;-80
2023/01/30 05:33:53;;;;;;;20.10;4.33;;;8.10;99.90;;;;;;4909756;29;20270;-80
2023/01/30 05:36:23;;;;;;;18.10;4.50;;;8.10;99.90;;;;;;4909968;29;20242;-81
2023/01/30 05:38:50;;;;;;;34.87;6.70;;;8.00;99.90;;;;;;4909137;29;20207;-79
2023/01/30 05:41:18;;;;;;;24.40;5.90;;;8.00;99.90;;;;;;4909932;29;20221;-80
2023/01/30 05:43:44;;;;;;;22.53;5.20;;;8.00;99.90;;;;;;4909428;29;20206;-80
2023/01/30 05:46:12;;;;;;;27.17;6.27;;;8.00;99.90;;;;;;4908584;29;20329;-80
2023/01/30 05:48:40;;;;;;;27.57;6.37;;;8.00;99.90;;;;;;4909598;29;20604;-81
2023/01/30 05:51:07;;;;;;;25.73;6.50;;;8.00;99.90;;;;;;4909050;29;20203;-81
2023/01/30 05:53:36;;;;;;;25.23;6.20;;;8.00;99.90;;;;;;4908612;29;20879;-79
2023/01/30 05:56:04;;;;;;;23.80;5.60;;;8.00;99.90;;;;;;4914617;29;20847;-80
2023/01/30 05:58:32;;;;;;;27.63;6.07;;;8.00;99.90;;;;;;4928590;29;20554;-80
2023/01/30 06:01:03;;;;;;;34.53;6.70;;;8.00;99.90;;;;;;4927095;29;20210;-82
2023/01/30 06:03:30;;;;;;;28.67;6.47;;;7.90;99.90;;;;;;4927487;29;20238;-80
2023/01/30 06:05:57;;;;;;;25.33;6.07;;;7.90;99.90;;;;;;4919462;29;20214;-80
2023/01/30 06:08:24;;;;;;;31.70;6.97;;;7.90;99.90;;;;;;4909570;29;20213;-80
2023/01/30 06:10:52;;;;;;;25.97;4.87;;;7.90;99.90;;;;;;4908648;29;20829;-82
2023/01/30 06:13:19;;;;;;;24.63;5.60;;;7.90;99.90;;;;;;4908370;29;20210;-80
2023/01/30 06:15:46;;;;;;;27.23;5.13;;;7.90;99.90;;;;;;4907845;29;20241;-79
2023/01/30 06:18:13;;;;;;;31.57;6.73;;;7.90;99.90;;;;;;4908833;29;20210;-78
2023/01/30 06:20:40;;;;;;;34.80;7.60;;;7.90;99.90;;;;;;4912441;29;20206;-81
2023/01/30 06:23:07;;;;;;;30.83;6.00;;;7.90;99.90;;;;;;4927422;29;20209;-79
2023/01/30 06:25:34;;;;;;;25.17;6.00;;;7.80;99.90;;;;;;4926906;29;20202;-80
2023/01/30 06:28:03;;;;;;;34.83;7.63;;;7.80;99.90;;;;;;4923475;29;20206;-79
2023/01/30 06:30:30;;;;;;;34.63;7.87;;;7.80;99.90;;;;;;4907972;29;20350;-78
2023/01/30 06:32:56;;;;;;;26.17;6.10;;;7.80;99.90;;;;;;4908619;29;20206;-80
2023/01/30 06:35:23;;;;;;;33.20;6.63;;;7.80;99.90;;;;;;4923193;29;20233;-80
2023/01/30 06:37:50;;;;;;;24.33;5.13;;;7.80;99.90;;;;;;4961383;23;20238;-80
2023/01/30 06:40:18;;;;;;;27.17;5.83;;;7.70;99.90;;;;;;4955675;28;20216;-80
2023/01/30 06:42:45;;;;;;;22.03;6.07;;;7.70;99.90;;;;;;4945616;29;20205;-79
2023/01/30 06:45:15;;;;;;;22.60;5.33;;;7.70;99.90;;;;;;4946442;29;20205;-80
2023/01/30 06:47:45;;;;;;;25.17;5.00;;;7.70;99.90;;;;;;4946391;28;20213;-79
2023/01/30 06:50:12;;;;;;;26.93;6.30;;;7.70;99.90;;;;;;4946279;29;20530;-80
2023/01/30 06:52:41;;;;;;;23.60;6.50;;;7.70;99.90;;;;;;4946081;29;20316;-79
2023/01/30 06:55:08;;;;;;;28.67;6.43;;;7.70;99.90;;;;;;4945373;29;20556;-79
2023/01/30 06:57:35;;;;;;;26.10;4.93;;;7.70;99.90;;;;;;4945571;28;20209;-79
2023/01/30 07:00:04;;;;;;;28.90;5.90;;;7.70;99.90;;;;;;4946155;28;20202;-79
2023/01/30 07:02:34;;;;;;;29.77;5.13;;;7.70;99.90;;;;;;4938005;29;20600;-79
2023/01/30 07:05:01;;;;;;;29.53;6.03;;;7.60;99.90;;;;;;4926762;29;20194;-79
2023/01/30 07:07:28;;;;;;;26.63;5.13;;;7.70;99.90;;;;;;4925644;29;20233;-81
2023/01/30 07:09:55;;;;;;;26.27;5.10;;;7.70;99.90;;;;;;4925419;29;20216;-80
2023/01/30 07:12:23;;;;;;;17.57;5.10;;;7.70;99.90;;;;;;4926102;29;20210;-81
2023/01/30 07:14:50;;;;;;;27.60;6.03;;;7.70;99.90;;;;;;4926024;29;20605;-81
2023/01/30 07:17:17;;;;;;;21.33;5.43;;;7.70;99.90;;;;;;4926276;29;20209;-79
2023/01/30 07:19:45;;;;;;;21.37;6.10;;;7.70;99.90;;;;;;4926371;29;20214;-80
2023/01/30 07:22:13;;;;;;;23.10;5.37;;;7.70;99.90;;;;;;4926052;29;20194;-78
2023/01/30 07:24:41;;;;;;;31.57;6.23;;;7.70;99.90;;;;;;4925157;29;20666;-78
2023/01/30 07:27:09;;;;;;;29.70;6.57;;;7.70;99.90;;;;;;4925717;29;20221;-78
2023/01/30 07:29:36;;;;;;;24.23;5.47;;;7.70;99.90;;;;;;4925909;29;20243;-78
2023/01/30 07:32:04;;;;;;;23.87;5.00;;;7.70;99.90;;;;;;4925626;29;20336;-77
2023/01/30 07:34:31;;;;;;;22.17;4.93;;;7.70;99.90;;;;;;4926121;29;20232;-80
2023/01/30 07:36:59;;;;;;;19.23;4.93;;;7.70;99.90;;;;;;4926283;29;20361;-79
2023/01/30 07:39:26;;;;;;;36.20;7.20;;;7.70;99.90;;;;;;4925036;29;20209;-79
2023/01/30 07:41:53;;;;;;;20.80;6.13;;;7.70;99.90;;;;;;4935697;29;20981;-79
2023/01/30 07:44:20;;;;;;;25.40;5.30;;;7.80;99.90;;;;;;4944936;29;20244;-80
2023/01/30 07:46:47;;;;;;;26.53;6.43;;;7.80;99.90;;;;;;4944912;29;20209;-80
2023/01/30 07:49:14;;;;;;;30.93;6.57;;;7.80;99.90;;;;;;4944154;29;20204;-79
2023/01/30 07:51:40;;;;;;;23.30;5.33;;;7.80;99.90;;;;;;4944246;29;20208;-79
2023/01/30 07:54:09;;;;;;;24.13;5.53;;;7.80;99.90;;;;;;4936857;29;20212;-79
2023/01/30 07:56:35;;;;;;;22.03;5.23;;;7.80;99.90;;;;;;4925447;29;20536;-79
2023/01/30 07:59:04;;;;;;;21.57;5.33;;;7.90;99.90;;;;;;4938528;29;20209;-81
2023/01/30 08:01:31;;;;;;;27.53;5.27;;;7.80;99.90;;;;;;4890610;29;20500;-82
2023/01/30 08:03:58;;;;;;;24.23;5.67;;;7.90;99.90;;;;;;4945724;28;21091;-80
2023/01/30 08:06:25;;;;;;;24.43;5.57;;;7.90;99.90;;;;;;4941021;29;20260;-79
2023/01/30 08:08:52;;;;;;;23.67;6.83;;;7.90;99.90;;;;;;4945668;29;20284;-79
2023/01/30 08:11:20;;;;;;;33.40;6.17;;;7.90;99.90;;;;;;4945622;29;20221;-78
2023/01/30 08:13:47;;;;;;;25.27;5.27;;;7.90;99.90;;;;;;4941007;29;20210;-79
2023/01/30 08:16:14;;;;;;;27.73;6.07;;;7.90;99.90;;;;;;4943265;29;20230;-80
2023/01/30 08:18:41;;;;;;;25.73;5.03;;;7.90;99.90;;;;;;4941089;28;20213;-81
2023/01/30 08:21:08;;;;;;;28.93;6.27;;;8.00;99.90;;;;;;4947156;28;20445;-81
2023/01/30 08:23:35;;;;;;;28.23;5.37;;;7.90;99.90;;;;;;4933661;29;20220;-81
2023/01/30 08:26:05;;;;;;;25.27;5.00;;;7.90;99.90;;;;;;4938782;29;20205;-80
2023/01/30 08:28:33;;;;;;;25.07;5.70;;;8.00;99.90;;;;;;4939618;29;20677;-82
2023/01/30 08:31:00;;;;;;;42.10;8.03;;;8.00;99.90;;;;;;4942783;29;20209;-80
2023/01/30 08:33:27;;;;;;;31.07;6.37;;;8.00;99.90;;;;;;4927439;28;20270;-81
2023/01/30 08:35:56;;;;;;;28.03;5.93;;;8.00;99.90;;;;;;4942162;29;20228;-81
2023/01/30 08:38:22;;;;;;;26.20;5.47;;;8.00;99.90;;;;;;4943872;28;20319;-82
2023/01/30 08:40:50;;;;;;;23.70;7.20;;;8.00;99.90;;;;;;4946886;29;20600;-81
2023/01/30 08:43:17;;;;;;;28.83;6.13;;;8.00;99.90;;;;;;4945409;29;20216;-80
2023/01/30 08:45:45;;;;;;;37.80;8.50;;;8.00;99.90;;;;;;4945013;29;20216;-79
2023/01/30 08:48:12;;;;;;;28.73;5.93;;;8.10;99.90;;;;;;4947320;29;20246;-79
2023/01/30 08:50:39;;;;;;;27.33;5.23;;;8.10;99.90;;;;;;4930616;29;20554;-81
2023/01/30 08:53:07;;;;;;;26.67;5.47;;;8.10;99.90;;;;;;4929974;29;20301;-79
2023/01/30 08:55:35;;;;;;;32.60;6.37;;;8.10;99.90;;;;;;4939572;29;20280;-81
2023/01/30 08:58:01;;;;;;;31.70;6.07;;;8.10;99.90;;;;;;4937840;29;20293;-81
2023/01/30 09:00:29;;;;;;;28.93;6.13;;;8.10;99.90;;;;;;4928817;29;20265;-81
2023/01/30 09:02:59;;;;;;;26.70;5.60;;;8.20;99.90;;;;;;4928184;29;20348;-80
2023/01/30 09:05:26;;;;;;;25.33;5.97;;;8.20;99.90;;;;;;4929364;29;20202;-81
2023/01/30 09:07:53;;;;;;;29.27;6.43;;;8.20;99.90;;;;;;4929058;29;20214;-79
2023/01/30 09:10:21;;;;;;;21.43;5.10;;;8.20;99.90;;;;;;4928867;29;20210;-80
2023/01/30 09:12:48;;;;;;;24.93;6.17;;;8.20;99.90;;;;;;4929035;29;20305;-79
2023/01/30 09:15:15;;;;;;;21.30;5.53;;;8.20;99.90;;;;;;4929268;29;20234;-81
2023/01/30 09:17:43;;;;;;;25.93;5.93;;;8.30;99.90;;;;;;4928624;29;20209;-82
2023/01/30 09:20:12;;;;;;;24.37;5.27;;;8.30;99.90;;;;;;4929562;29;20221;-81
2023/01/30 09:22:40;;;;;;;18.73;6.57;;;8.30;99.90;;;;;;4928268;29;20210;-81
2023/01/30 09:25:08;;;;;;;28.50;5.83;;;8.30;99.90;;;;;;4928586;29;20520;-81
2023/01/30 09:27:35;;;;;;;26.73;5.67;;;8.30;99.90;;;;;;4927223;29;20194;-79
2023/01/30 09:30:02;;;;;;;26.10;6.40;;;8.30;99.90;;;;;;4928289;29;20745;-79
2023/01/30 09:32:29;;;;;;;25.70;5.57;;;8.30;99.90;;;;;;4928260;29;20218;-77
2023/01/30 09:34:56;;;;;;;22.37;4.83;;;8.30;99.90;;;;;;4929341;29;20212;-81
2023/01/30 09:37:24;;;;;;;27.33;5.80;;;8.30;99.90;;;;;;4928594;29;20234;-81
2023/01/30 09:39:51;;;;;;;31.63;6.10;;;8.40;99.90;;;;;;4934518;29;20213;-81
2023/01/30 09:42:36;;;;;;;25.83;6.30;;;8.40;99.90;;;;;;4928058;29;20237;-80
2023/01/30 09:45:32;;;;;;;22.70;5.37;;;8.40;99.90;;;;;;4927300;29;20202;-81
2023/01/30 09:48:05;;;;;;;31.63;4.90;;;8.40;99.90;;;;;;4936736;28;20570;-79
2023/01/30 09:51:06;;;;;;;23.53;5.67;;;8.30;99.90;;;;;;4941522;28;20289;-78
2023/01/30 09:53:40;;;;;;;23.77;5.23;;;8.30;99.90;;;;;;4933612;29;20316;-82
2023/01/30 09:56:07;;;;;;;25.60;5.53;;;8.40;99.90;;;;;;4928332;29;20240;-81
2023/01/30 09:58:42;;;;;;;26.87;4.80;;;8.40;99.90;;;;;;4927882;29;20634;-79
2023/01/30 10:01:21;;;;;;;31.87;7.53;;;8.40;99.90;;;;;;4928470;29;20470;-80
2023/01/30 10:03:59;;;;;;;31.57;5.20;;;8.40;99.90;;;;;;4928088;29;20297;-82
2023/01/30 10:06:26;;;;;;;26.93;5.63;;;8.40;99.90;;;;;;4928136;29;20202;-79
2023/01/30 10:09:01;;;;;;;22.60;5.13;;;8.50;99.90;;;;;;4927416;29;20973;-79
2023/01/30 10:11:39;;;;;;;27.60;7.30;;;8.50;99.90;;;;;;4928056;29;20220;-81
2023/01/30 10:14:17;;;;;;;34.97;8.00;;;8.50;99.90;;;;;;4927349;29;20212;-82
2023/01/30 10:16:52;;;;;;;30.03;6.63;;;8.50;99.90;;;;;;4927408;29;20948;-79
2023/01/30 10:19:58;;;;;;;29.77;7.00;;;8.50;99.90;;;;;;4927346;29;20198;-78
2023/01/30 10:22:38;;;;;;;29.40;6.23;;;8.50;99.90;;;;;;4927196;29;20338;-78
2023/01/30 10:25:20;;;;;;;25.93;5.47;;;8.50;99.90;;;;;;4927545;28;20292;-79
2023/01/30 10:27:51;;;;;;;30.70;6.80;;;8.60;99.90;;;;;;4950401;28;20244;-78
2023/01/30 10:30:18;;;;;;;24.00;6.17;;;8.60;99.90;;;;;;4927602;28;20214;-79
2023/01/30 10:32:51;;;;;;;25.37;6.73;;;8.60;99.90;;;;;;4926146;29;20194;-78
2023/01/30 10:35:22;;;;;;;22.50;5.73;;;8.60;99.90;;;;;;4926882;29;20233;-78
2023/01/30 10:37:58;;;;;;;23.40;5.33;;;8.60;99.90;;;;;;4927080;29;20248;-78
2023/01/30 10:40:31;;;;;;;32.03;5.87;;;8.60;99.90;;;;;;4930110;29;20208;-78
2023/01/30 10:43:06;;;;;;;29.40;7.33;;;8.60;99.90;;;;;;4945025;29;20205;-79
2023/01/30 10:45:40;;;;;;;29.10;6.47;;;8.60;99.90;;;;;;4944668;29;20187;-78
2023/01/30 10:48:22;;;;;;;30.40;6.30;;;8.70;99.90;;;;;;4942914;28;20200;-79
2023/01/30 10:50:53;;;;;;;31.90;6.87;;;8.70;99.90;;;;;;4925566;29;20202;-78
2023/01/30 10:53:26;;;;;;;33.90;6.30;;;8.80;99.90;;;;;;4925735;29;20220;-79
2023/01/30 10:56:03;;;;;;;36.03;8.23;;;8.80;99.90;;;;;;4925557;29;20525;-78
2023/01/30 10:58:36;;;;;;;40.30;6.73;;;8.70;99.90;;;;;;4925589;29;20202;-78
2023/01/30 11:01:11;;;;;;;26.73;7.17;;;8.80;99.90;;;;;;4924849;29;20289;-78
2023/01/30 11:03:45;;;;;;;27.00;5.70;;;8.70;99.90;;;;;;4924994;29;20852;-78
2023/01/30 11:06:16;;;;;;;28.43;5.67;;;8.80;99.90;;;;;;4925626;29;20206;-78
2023/01/30 11:08:43;;;;;;;35.03;8.10;;;8.80;99.90;;;;;;4924574;29;20917;-78
2023/01/30 11:11:29;;;;;;;31.37;6.53;;;8.80;99.90;;;;;;4925533;29;20209;-79
2023/01/30 11:14:05;;;;;;;29.40;6.13;;;8.80;99.90;;;;;;4925122;29;20214;-78
2023/01/30 11:16:34;;;;;;;39.47;7.47;;;8.90;99.90;;;;;;4924888;29;20277;-79
2023/01/30 11:19:05;;;;;;;39.77;8.47;;;8.90;99.90;;;;;;4926093;29;20209;-78
2023/01/30 11:21:33;;;;;;;26.27;7.37;;;9.00;99.90;;;;;;4925758;29;20198;-79
2023/01/30 11:24:11;;;;;;;31.73;6.53;;;9.00;99.90;;;;;;4925031;29;20217;-77
2023/01/30 11:26:39;;;;;;;29.40;6.33;;;9.10;99.90;;;;;;4925268;29;20198;-77
2023/01/30 11:29:25;;;;;;;29.03;6.23;;;9.10;99.90;;;;;;4925913;29;20342;-78
2023/01/30 11:31:52;;;;;;;35.40;6.53;;;9.10;99.90;;;;;;4925434;29;20206;-78
2023/01/30 11:34:21;;;;;;;33.63;6.50;;;9.20;99.90;;;;;;4925424;29;20209;-77
2023/01/30 11:36:49;;;;;;;28.63;7.43;;;9.20;99.90;;;;;;4924381;29;20242;-78
2023/01/30 11:39:23;;;;;;;33.27;7.60;;;9.30;99.90;;;;;;4924837;29;20679;-78
2023/01/30 11:42:10;;;;;;;31.33;7.63;;;9.30;99.90;;;;;;4924626;29;20206;-77
2023/01/30 11:44:41;;;;;;;36.07;7.57;;;9.30;99.90;;;;;;4923619;29;20941;-79
2023/01/30 11:47:12;;;;;;;32.57;6.83;;;9.30;99.90;;;;;;4925726;29;20194;-80
2023/01/30 11:49:47;;;;;;;24.63;5.90;;;9.30;99.90;;;;;;4924995;29;20222;-79
2023/01/30 11:52:17;;;;;;;26.60;6.20;;;9.30;99.90;;;;;;4924919;29;20209;-78
2023/01/30 11:54:46;;;;;;;33.97;7.03;;;9.30;99.90;;;;;;4924565;29;20336;-78
2023/01/30 11:57:17;;;;;;;34.23;6.50;;;9.30;99.90;;;;;;4924990;29;20236;-79
2023/01/30 11:59:47;;;;;;;33.53;6.60;;;9.30;99.90;;;;;;4925769;29;20194;-79
2023/01/30 12:02:19;;;;;;;27.57;6.27;;;9.30;99.90;;;;;;4926042;29;20226;-78
2023/01/30 12:04:49;;;;;;;34.63;7.17;;;9.30;99.90;;;;;;4927097;29;20292;-79
2023/01/30 12:07:20;;;;;;;24.97;6.77;;;9.30;99.90;;;;;;4944880;29;20338;-79
2023/01/30 12:09:49;;;;;;;33.83;6.20;;;9.30;99.90;;;;;;4944586;29;20205;-79
2023/01/30 12:12:33;;;;;;;26.10;6.37;;;9.40;99.90;;;;;;4944577;28;20913;-81
2023/01/30 12:15:18;;;;;;;29.63;6.50;;;9.40;99.90;;;;;;4944050;29;20275;-79
2023/01/30 12:17:52;;;;;;;25.17;5.30;;;9.40;99.90;;;;;;4943971;28;20228;-78
2023/01/30 12:20:28;;;;;;;25.60;6.10;;;9.40;99.90;;;;;;4944327;29;20197;-79
2023/01/30 12:23:03;;;;;;;31.57;5.70;;;9.40;99.90;;;;;;4933608;29;20205;-79
2023/01/30 12:25:36;;;;;;;31.47;6.57;;;9.30;99.90;;;;;;4925430;29;20197;-78
2023/01/30 12:28:15;;;;;;;25.63;6.93;;;9.30;99.90;;;;;;4925533;29;20200;-77
2023/01/30 12:30:46;;;;;;;27.40;6.33;;;9.30;99.90;;;;;;4931647;29;20193;-79
2023/01/30 12:33:15;;;;;;;30.80;6.23;;;9.30;99.90;;;;;;4944529;29;20717;-79
2023/01/30 12:35:51;;;;;;;27.23;7.53;;;9.30;99.90;;;;;;4936304;29;20209;-78
2023/01/30 12:38:42;;;;;;;34.80;7.10;;;9.30;99.90;;;;;;4931804;29;20247;-77
2023/01/30 12:41:22;;;;;;;35.77;6.33;;;9.30;99.90;;;;;;4927647;29;20924;-80
2023/01/30 12:44:03;;;;;;;31.27;5.70;;;9.40;99.90;;;;;;4943956;29;20194;-77
2023/01/30 12:46:50;;;;;;;28.17;6.53;;;9.40;99.90;;;;;;4938743;28;20665;-77
2023/01/30 12:49:32;;;;;;;24.00;5.57;;;9.40;99.90;;;;;;4940647;29;20219;-77
2023/01/30 12:52:12;;;;;;;28.60;6.00;;;9.30;99.90;;;;;;4936109;29;20206;-77
2023/01/30 12:54:50;;;;;;;33.27;5.87;;;9.30;99.90;;;;;;4923897;29;20197;-77
2023/01/30 12:57:25;;;;;;;31.33;5.87;;;9.20;99.90;;;;;;4934134;29;20225;-77
2023/01/30 13:00:05;;;;;;;30.80;6.63;;;9.20;99.90;;;;;;4943197;28;20232;-77
2023/01/30 13:02:50;;;;;;;27.77;6.03;;;9.30;99.90;;;;;;4929786;28;20225;-77
2023/01/30 13:05:34;;;;;;;28.90;6.77;;;9.30;99.90;;;;;;4941146;29;20285;-79
2023/01/30 13:08:11;;;;;;;31.10;7.50;;;9.20;99.90;;;;;;4941604;29;20204;-77
2023/01/30 13:10:48;;;;;;;22.33;5.60;;;9.10;99.90;;;;;;4924349;29;20201;-78
2023/01/30 13:13:25;;;;;;;34.90;6.40;;;9.10;99.90;;;;;;4925574;29;20594;-78